Time;durP1;ratioP1;P1;durP2;ratioP2;P2;SDS_P1;SDS_P2;PMS_P1;PMS_P2;Temp;Humidity;BMP_temperature;BMP_pressure;BME280_temperature;BME280_humidity;BME280_pressure;Samples;Min_cycle;Max_cycle;Signal;HPM_P1;HPM_P2
2022/07/24 00:01:38;;;;;;;11.57;7.47;;;;;;;23.70;51.89;95150.84;5032741;28;20203;-62
2022/07/24 00:04:06;;;;;;;10.95;7.35;;;;;;;23.62;52.04;95150.66;5032131;28;20561;-63
2022/07/24 00:06:34;;;;;;;10.70;7.57;;;;;;;23.48;52.67;95161.34;5032160;28;20270;-62
2022/07/24 00:09:01;;;;;;;10.77;7.32;;;;;;;23.43;52.99;95158.28;5032446;28;20222;-63
2022/07/24 00:11:28;;;;;;;9.70;7.30;;;;;;;23.73;52.04;95155.78;5032311;28;20200;-63
2022/07/24 00:13:54;;;;;;;14.10;7.82;;;;;;;24.00;51.80;95155.19;5031502;28;20229;-63
2022/07/24 00:16:21;;;;;;;8.38;7.63;;;;;;;24.15;51.17;95153.06;5032034;28;20231;-62
2022/07/24 00:18:48;;;;;;;11.13;8.30;;;;;;;24.22;50.81;95159.41;5031938;28;20199;-63
2022/07/24 00:21:15;;;;;;;10.98;7.80;;;;;;;24.05;51.52;95154.81;5031973;28;20265;-63
2022/07/24 00:23:43;;;;;;;10.13;7.72;;;;;;;23.77;52.24;95145.13;5032319;28;20259;-62
2022/07/24 00:26:10;;;;;;;13.82;7.47;;;;;;;23.49;52.99;95152.59;5032135;28;20279;-62
2022/07/24 00:28:37;;;;;;;7.53;6.78;;;;;;;23.35;53.43;95152.91;5032085;28;20199;-63
2022/07/24 00:31:04;;;;;;;9.48;7.07;;;;;;;22.94;55.08;95154.53;5031817;28;20204;-63
2022/07/24 00:33:31;;;;;;;13.90;7.80;;;;;;;23.29;53.96;95148.22;5031768;28;20195;-63
2022/07/24 00:35:58;;;;;;;8.82;7.85;;;;;;;23.28;53.54;95157.78;5031881;28;20200;-63
2022/07/24 00:38:25;;;;;;;16.38;8.32;;;;;;;23.18;53.46;95150.88;5031705;28;20196;-63
2022/07/24 00:40:53;;;;;;;15.55;9.13;;;;;;;22.95;53.95;95156.19;5031996;28;20196;-62
2022/07/24 00:43:20;;;;;;;15.43;8.52;;;;;;;22.82;54.70;95160.69;5031872;28;20346;-63
2022/07/24 00:45:47;;;;;;;13.55;8.27;;;;;;;23.24;53.95;95158.19;5031263;28;20196;-63
2022/07/24 00:48:14;;;;;;;17.65;9.60;;;;;;;23.71;52.61;95155.09;5031628;28;20253;-62
2022/07/24 00:50:41;;;;;;;13.25;9.07;;;;;;;23.99;51.34;95157.94;5031660;28;20272;-63
2022/07/24 00:53:08;;;;;;;11.90;8.63;;;;;;;24.01;51.62;95156.84;5031727;28;20196;-63
2022/07/24 00:55:35;;;;;;;19.73;9.02;;;;;;;24.15;51.30;95153.06;5031232;28;20200;-63
2022/07/24 00:58:03;;;;;;;12.63;9.48;;;;;;;24.19;50.86;95149.28;5031024;28;20227;-63
2022/07/24 01:00:30;;;;;;;46.67;9.43;;;;;;;24.41;50.95;95154.28;5031640;28;20211;-62
2022/07/24 01:02:57;;;;;;;14.32;7.72;;;;;;;24.49;50.64;95160.59;5031223;28;20277;-63
2022/07/24 01:05:24;;;;;;;12.70;8.05;;;;;;;24.58;50.82;95155.41;5031167;28;20714;-63
2022/07/24 01:07:51;;;;;;;9.00;8.10;;;;;;;24.66;50.25;95152.16;5031245;28;20603;-62
2022/07/24 01:10:18;;;;;;;15.55;7.70;;;;;;;24.71;49.88;95160.38;5031283;28;20669;-63
2022/07/24 01:12:45;;;;;;;9.65;7.47;;;;;;;24.66;49.75;95149.53;5031156;28;20327;-62
2022/07/24 01:15:13;;;;;;;15.30;8.90;;;;;;;24.59;49.74;95141.47;5030799;28;20257;-62
2022/07/24 01:17:42;;;;;;;11.43;8.10;;;;;;;24.69;49.37;95146.69;5031085;28;20231;-63
2022/07/24 01:20:10;;;;;;;12.85;8.07;;;;;;;24.69;49.60;95144.09;5031124;28;20199;-63
2022/07/24 01:22:39;;;;;;;15.90;7.90;;;;;;;24.44;49.77;95142.81;5031417;28;20198;-63
2022/07/24 01:25:07;;;;;;;8.85;7.85;;;;;;;23.89;51.42;95141.50;5031140;28;20203;-62
2022/07/24 01:27:33;;;;;;;9.02;6.95;;;;;;;23.54;51.89;95141.84;5030136;28;20219;-63
2022/07/24 01:30:00;;;;;;;12.52;7.65;;;;;;;23.55;52.03;95143.50;5031253;28;20200;-62
2022/07/24 01:32:27;;;;;;;13.07;8.13;;;;;;;23.68;52.01;95144.13;5031352;28;20200;-62
2022/07/24 01:34:54;;;;;;;12.05;7.25;;;;;;;23.91;50.94;95145.59;5031107;28;20204;-63
2022/07/24 01:37:20;;;;;;;10.40;7.28;;;;;;;23.97;51.27;95144.28;5030830;28;20285;-63
2022/07/24 01:39:48;;;;;;;11.02;7.30;;;;;;;23.97;51.07;95147.69;5030834;28;20208;-63
2022/07/24 01:42:15;;;;;;;12.90;7.88;;;;;;;24.12;50.42;95137.75;5031158;28;20265;-63
2022/07/24 01:44:42;;;;;;;8.30;7.50;;;;;;;24.24;49.76;95136.75;5030688;28;20207;-63
2022/07/24 01:47:09;;;;;;;11.23;8.18;;;;;;;24.25;49.90;95133.16;5030773;28;20254;-62
2022/07/24 01:49:36;;;;;;;11.35;8.18;;;;;;;23.96;50.43;95132.25;5030938;28;20322;-63
2022/07/24 01:52:02;;;;;;;17.02;8.35;;;;;;;23.84;50.93;95118.53;5030572;28;20733;-63
2022/07/24 01:54:29;;;;;;;9.13;7.53;;;;;;;24.00;50.29;95128.44;5030709;28;20277;-63
2022/07/24 01:56:57;;;;;;;20.60;8.98;;;;;;;24.08;50.07;95124.22;5030478;28;20226;-62
2022/07/24 01:59:24;;;;;;;10.55;7.55;;;;;;;24.22;50.05;95123.03;5030466;28;20619;-63
2022/07/24 02:01:51;;;;;;;7.32;6.63;;;;;;;24.04;50.38;95124.59;5030443;28;20642;-63
2022/07/24 02:04:18;;;;;;;12.15;7.13;;;;;;;23.79;51.57;95122.47;5030783;28;20265;-62
2022/07/24 02:06:44;;;;;;;16.88;8.18;;;;;;;23.32;52.98;95132.41;5030538;28;20676;-63
2022/07/24 02:09:11;;;;;;;21.23;7.85;;;;;;;22.89;53.88;95122.16;5030324;28;20688;-63
2022/07/24 02:11:38;;;;;;;12.82;7.60;;;;;;;22.44;55.20;95129.22;5030661;28;20674;-63
2022/07/24 02:14:06;;;;;;;13.48;8.23;;;;;;;22.42;55.28;95125.94;5030385;28;20203;-63
2022/07/24 02:16:33;;;;;;;11.73;8.50;;;;;;;22.84;54.43;95124.28;5030326;28;20191;-63
2022/07/24 02:19:00;;;;;;;9.27;7.80;;;;;;;23.04;53.97;95124.31;5030214;28;20686;-63
2022/07/24 02:21:27;;;;;;;10.63;8.25;;;;;;;23.38;52.88;95116.34;5030315;28;20210;-62
2022/07/24 02:23:53;;;;;;;9.75;8.38;;;;;;;23.51;52.77;95127.34;5030500;28;20211;-63
2022/07/24 02:26:20;;;;;;;10.63;8.07;;;;;;;23.61;52.38;95123.06;5030178;28;20673;-63
2022/07/24 02:28:47;;;;;;;11.85;8.27;;;;;;;23.76;52.29;95126.13;5030379;28;20286;-63
2022/07/24 02:31:15;;;;;;;16.83;7.80;;;;;;;23.74;51.80;95128.06;5030731;28;20199;-63
2022/07/24 02:33:42;;;;;;;12.80;8.38;;;;;;;23.81;51.58;95138.72;5030461;28;20200;-62
2022/07/24 02:36:09;;;;;;;11.00;7.63;;;;;;;23.63;52.37;95133.31;5030611;28;20196;-63
2022/07/24 02:38:36;;;;;;;14.07;7.43;;;;;;;23.81;51.41;95138.72;5033019;28;20227;-63
2022/07/24 02:41:03;;;;;;;13.55;8.02;;;;;;;23.93;50.68;95132.50;5034277;28;20195;-63
2022/07/24 02:43:30;;;;;;;16.27;7.68;;;;;;;23.92;50.53;95136.06;5033758;28;20200;-63
2022/07/24 02:45:56;;;;;;;9.40;7.88;;;;;;;23.89;50.95;95129.34;5033985;28;20195;-63
2022/07/24 02:48:25;;;;;;;8.82;7.13;;;;;;;24.04;50.14;95135.81;5033981;28;20253;-62
2022/07/24 02:50:53;;;;;;;13.15;7.25;;;;;;;22.98;53.16;95129.19;5033557;28;20239;-63
2022/07/24 02:53:20;;;;;;;11.77;7.53;;;;;;;22.52;54.52;95135.41;5033668;28;20533;-63
2022/07/24 02:55:46;;;;;;;18.92;8.02;;;;;;;22.06;56.21;95131.28;5033377;28;20196;-63
2022/07/24 02:58:13;;;;;;;9.75;7.57;;;;;;;22.37;55.64;95139.22;5033703;28;20224;-63
2022/07/24 03:00:40;;;;;;;20.33;8.43;;;;;;;22.85;54.16;95134.53;5033826;28;20200;-62
2022/07/24 03:03:07;;;;;;;17.67;8.07;;;;;;;22.56;54.93;95133.41;5033673;28;20780;-63
2022/07/24 03:05:35;;;;;;;10.80;8.13;;;;;;;22.86;53.70;95131.00;5033462;28;20273;-63
2022/07/24 03:08:02;;;;;;;10.23;7.93;;;;;;;22.56;54.69;95133.41;5033897;28;20184;-63
2022/07/24 03:10:28;;;;;;;17.85;7.40;;;;;;;22.47;55.15;95131.56;5033573;28;20196;-63
2022/07/24 03:12:55;;;;;;;12.93;7.88;;;;;;;22.53;54.90;95133.66;5033956;28;20192;-63
2022/07/24 03:15:22;;;;;;;13.05;7.88;;;;;;;22.32;55.67;95139.59;5033179;28;20199;-62
2022/07/24 03:17:51;;;;;;;9.60;7.55;;;;;;;22.81;54.59;95129.72;5033226;28;20257;-63
2022/07/24 03:20:17;;;;;;;14.00;8.52;;;;;;;23.20;53.42;95141.22;5033149;28;20254;-63
2022/07/24 03:22:46;;;;;;;17.98;8.35;;;;;;;23.34;53.29;95133.09;5033793;28;20200;-63
2022/07/24 03:25:13;;;;;;;13.50;7.63;;;;;;;23.48;52.56;95140.59;5033070;28;20204;-63
2022/07/24 03:27:40;;;;;;;8.93;7.78;;;;;;;23.26;52.88;95132.94;5033165;28;20207;-63
2022/07/24 03:30:08;;;;;;;11.85;8.65;;;;;;;22.45;55.33;95130.88;5032937;28;20203;-62
2022/07/24 03:32:35;;;;;;;13.93;7.70;;;;;;;22.35;55.59;95134.19;5032928;28;20207;-63
2022/07/24 03:35:02;;;;;;;15.07;8.38;;;;;;;22.18;56.29;95137.28;5032948;28;20735;-63
2022/07/24 03:37:29;;;;;;;11.77;7.88;;;;;;;22.29;56.23;95141.59;5032542;28;20739;-63
2022/07/24 03:39:57;;;;;;;11.32;8.00;;;;;;;22.22;56.41;95140.44;5033154;28;20261;-63
2022/07/24 03:42:24;;;;;;;11.82;8.32;;;;;;;22.26;56.27;95142.69;5033000;28;20199;-63
2022/07/24 03:44:51;;;;;;;11.98;8.50;;;;;;;22.63;55.27;95140.59;5032882;28;20192;-63
2022/07/24 03:47:18;;;;;;;10.85;8.20;;;;;;;23.30;53.89;95139.50;5032932;28;20196;-63
2022/07/24 03:49:44;;;;;;;14.45;8.25;;;;;;;23.14;53.10;95137.34;5031877;28;20208;-63
2022/07/24 03:52:11;;;;;;;14.80;7.65;;;;;;;22.52;54.31;95139.81;5032278;28;20814;-63
2022/07/24 03:54:38;;;;;;;12.35;7.90;;;;;;;22.55;53.63;95129.19;5032806;28;20200;-63
2022/07/24 03:57:07;;;;;;;12.45;7.65;;;;;;;22.61;54.34;95128.69;5032078;28;20262;-62
2022/07/24 03:59:33;;;;;;;22.00;8.73;;;;;;;23.40;52.94;95138.63;5032765;28;20218;-64
2022/07/24 04:02:00;;;;;;;11.35;7.90;;;;;;;23.91;51.65;95139.59;5032120;28;20674;-64
2022/07/24 04:04:27;;;;;;;28.52;9.38;;;;;;;24.25;50.92;95138.38;5032359;28;20207;-64
2022/07/24 04:06:54;;;;;;;29.35;10.10;;;;;;;24.50;50.52;95146.66;5032316;28;20242;-63
2022/07/24 04:09:21;;;;;;;30.13;9.57;;;;;;;24.74;49.83;95145.31;5032177;28;20581;-63
2022/07/24 04:11:47;;;;;;;16.27;9.00;;;;;;;24.91;49.15;95136.03;5032189;28;20207;-63
2022/07/24 04:14:16;;;;;;;19.10;11.70;;;;;;;25.03;48.44;95134.94;5032329;28;20196;-63
2022/07/24 04:16:42;;;;;;;14.32;8.73;;;;;;;25.14;48.16;95138.38;5032380;28;20261;-63
2022/07/24 04:19:09;;;;;;;20.20;8.93;;;;;;;25.29;47.77;95131.78;5032328;28;20223;-64
2022/07/24 04:21:36;;;;;;;11.90;8.15;;;;;;;25.36;46.74;95135.47;5032328;28;20203;-62
2022/07/24 04:24:03;;;;;;;16.73;7.22;;;;;;;25.35;47.03;95137.25;5032290;28;20199;-65
2022/07/24 04:26:30;;;;;;;12.18;8.77;;;;;;;25.42;46.66;95137.53;5031876;28;20203;-64
2022/07/24 04:28:57;;;;;;;19.80;7.88;;;;;;;25.51;47.07;95136.66;5031742;28;20277;-64
2022/07/24 04:31:25;;;;;;;13.63;8.20;;;;;;;25.65;46.91;95141.47;5032215;28;20223;-64
2022/07/24 04:33:52;;;;;;;12.93;8.35;;;;;;;25.73;46.95;95139.00;5031651;28;20696;-64
2022/07/24 04:36:18;;;;;;;12.18;7.60;;;;;;;25.70;47.14;95143.66;5031789;28;20744;-63
2022/07/24 04:38:45;;;;;;;14.05;7.40;;;;;;;25.84;46.50;95147.56;5031568;28;20223;-64
2022/07/24 04:41:12;;;;;;;23.88;8.27;;;;;;;25.98;45.98;95147.13;5032103;28;20269;-64
2022/07/24 04:43:39;;;;;;;17.05;8.20;;;;;;;26.09;44.81;95139.94;5031653;28;20258;-64
2022/07/24 04:46:06;;;;;;;16.45;8.30;;;;;;;26.26;44.91;95140.94;5031889;28;20203;-64
2022/07/24 04:48:34;;;;;;;13.40;7.70;;;;;;;26.32;44.61;95148.22;5031599;28;20289;-63
2022/07/24 04:51:01;;;;;;;15.52;8.25;;;;;;;26.34;44.77;95154.13;5031533;28;20236;-63
2022/07/24 04:53:30;;;;;;;13.68;8.18;;;;;;;26.21;45.66;95148.41;5030749;28;20444;-64
2022/07/24 04:55:57;;;;;;;12.30;7.88;;;;;;;26.39;45.34;95140.66;5031281;28;20206;-63
2022/07/24 04:58:24;;;;;;;14.45;8.63;;;;;;;26.51;45.31;95143.88;5031203;28;20223;-63
2022/07/24 05:00:50;;;;;;;13.88;8.32;;;;;;;26.75;44.77;95141.50;5031234;28;20270;-64
2022/07/24 05:03:17;;;;;;;15.15;9.32;;;;;;;26.86;44.45;95143.91;5031571;28;20285;-63
2022/07/24 05:05:46;;;;;;;19.02;9.50;;;;;;;26.92;44.02;95142.50;5031239;28;20750;-63
2022/07/24 05:08:13;;;;;;;15.57;9.57;;;;;;;26.89;44.08;95148.84;5030953;28;20701;-64
2022/07/24 05:10:40;;;;;;;15.02;8.32;;;;;;;27.10;43.25;95151.19;5031663;28;20204;-64
2022/07/24 05:13:06;;;;;;;10.02;9.18;;;;;;;27.37;43.03;95158.09;5031039;28;20207;-64
2022/07/24 05:15:33;;;;;;;16.90;10.32;;;;;;;27.55;42.54;95164.09;5031314;28;20265;-63
2022/07/24 05:18:00;;;;;;;23.38;10.45;;;;;;;27.68;42.52;95158.50;5031349;28;20227;-63
2022/07/24 05:20:27;;;;;;;20.00;10.35;;;;;;;27.68;42.78;95161.94;5030911;28;20196;-64
2022/07/24 05:22:55;;;;;;;20.60;9.65;;;;;;;28.56;40.94;95153.88;5031113;28;20207;-64
2022/07/24 05:25:22;;;;;;;17.23;10.02;;;;;;;29.24;39.07;95153.69;5030769;28;20203;-65
2022/07/24 05:27:49;;;;;;;13.65;9.02;;;;;;;31.14;35.64;95140.56;5030987;28;20203;-65
2022/07/24 05:30:15;;;;;;;10.18;9.18;;;;;;;32.65;31.93;95152.53;5030666;28;20563;-65
2022/07/24 05:32:42;;;;;;;14.90;9.60;;;;;;;34.08;29.82;95141.91;5031071;28;20199;-64
2022/07/24 05:35:09;;;;;;;17.52;8.93;;;;;;;35.57;28.00;95138.34;5030937;28;20195;-65
2022/07/24 05:37:36;;;;;;;10.38;8.15;;;;;;;36.35;27.05;95136.66;5030596;28;20208;-65
2022/07/24 05:40:05;;;;;;;17.40;9.57;;;;;;;36.75;26.10;95137.31;5031016;28;20254;-65
2022/07/24 05:42:32;;;;;;;16.60;9.07;;;;;;;35.98;27.29;95137.31;5031192;28;20265;-66
2022/07/24 05:44:59;;;;;;;14.82;7.93;;;;;;;36.52;25.56;95136.19;5030695;28;20203;-66
2022/07/24 05:47:26;;;;;;;18.58;9.18;;;;;;;37.30;24.61;95129.69;5030750;28;20200;-65
2022/07/24 05:49:52;;;;;;;20.08;8.23;;;;;;;38.20;23.70;95124.84;5030617;28;20257;-65
2022/07/24 05:52:19;;;;;;;11.38;9.25;;;;;;;37.66;24.73;95122.91;5030232;28;20664;-64
2022/07/24 05:54:46;;;;;;;12.95;8.75;;;;;;;37.54;24.85;95125.44;5030565;28;20677;-64
2022/07/24 05:57:14;;;;;;;14.70;8.57;;;;;;;37.46;24.80;95123.84;5030712;28;20261;-65
2022/07/24 05:59:41;;;;;;;13.40;8.95;;;;;;;37.08;25.29;95115.94;5030376;28;20273;-65
2022/07/24 06:02:07;;;;;;;15.23;9.15;;;;;;;36.61;26.07;95124.34;5030759;28;20257;-65
2022/07/24 06:04:35;;;;;;;18.88;9.55;;;;;;;36.24;26.84;95126.66;5030563;28;20195;-65
2022/07/24 06:07:02;;;;;;;16.83;9.23;;;;;;;37.40;25.18;95129.19;5030052;28;20695;-65
2022/07/24 06:09:29;;;;;;;16.38;9.85;;;;;;;37.24;25.20;95137.69;5030477;28;20637;-64
2022/07/24 06:11:56;;;;;;;11.60;8.75;;;;;;;37.40;25.14;95131.84;5030660;28;20202;-65
2022/07/24 06:14:24;;;;;;;14.23;9.75;;;;;;;37.49;25.69;95129.75;5034260;28;20199;-64
2022/07/24 06:16:51;;;;;;;14.00;9.40;;;;;;;38.50;24.27;95132.88;5034326;28;20694;-63
2022/07/24 06:19:18;;;;;;;13.52;9.07;;;;;;;38.10;24.81;95124.53;5034097;28;20223;-65
2022/07/24 06:21:44;;;;;;;14.20;9.15;;;;;;;38.05;24.76;95124.38;5034794;28;20285;-64
2022/07/24 06:24:11;;;;;;;10.73;8.70;;;;;;;38.56;24.07;95112.59;5034568;28;20211;-65
2022/07/24 06:26:38;;;;;;;16.83;9.10;;;;;;;38.59;24.10;95114.84;5034006;28;20226;-64
2022/07/24 06:29:05;;;;;;;27.50;10.10;;;;;;;38.33;24.16;95108.78;5034539;28;20195;-65
2022/07/24 06:31:33;;;;;;;17.02;8.95;;;;;;;38.96;23.78;95112.88;5034170;28;20199;-65
2022/07/24 06:34:00;;;;;;;19.15;9.77;;;;;;;38.31;24.67;95100.22;5034064;28;20652;-65
2022/07/24 06:36:27;;;;;;;21.52;10.05;;;;;;;37.96;24.95;95113.22;5034038;28;20265;-64
2022/07/24 06:38:54;;;;;;;25.80;9.30;;;;;;;37.52;25.39;95108.91;5033801;28;20231;-64
2022/07/24 06:41:21;;;;;;;14.60;9.13;;;;;;;37.93;24.81;95099.59;5034035;28;20199;-64
2022/07/24 06:43:47;;;;;;;14.07;8.60;;;;;;;37.81;25.42;95099.50;5033724;28;20202;-65
2022/07/24 06:46:14;;;;;;;14.25;9.15;;;;;;;37.85;25.09;95099.88;5033734;28;20689;-65
2022/07/24 06:48:42;;;;;;;18.25;8.40;;;;;;;37.75;24.86;95101.19;5033804;28;20200;-65
2022/07/24 06:51:09;;;;;;;9.60;8.70;;;;;;;37.51;24.94;95098.53;5033883;28;20627;-65
2022/07/24 06:53:37;;;;;;;16.77;10.95;;;;;;;37.13;25.33;95092.25;5033747;28;20203;-65
2022/07/24 06:56:04;;;;;;;15.32;9.40;;;;;;;36.89;25.78;95098.31;5033413;28;20206;-65
2022/07/24 06:58:30;;;;;;;14.10;8.70;;;;;;;36.84;25.97;95087.56;5033547;28;20281;-65
2022/07/24 07:00:57;;;;;;;15.48;8.25;;;;;;;36.59;26.47;95086.66;5033817;28;20269;-64
2022/07/24 07:03:24;;;;;;;11.80;8.88;;;;;;;36.47;26.46;95086.50;5033634;28;20747;-64
2022/07/24 07:05:52;;;;;;;14.90;10.73;;;;;;;36.02;27.32;95090.91;5032932;28;20224;-65
2022/07/24 07:08:19;;;;;;;16.13;11.15;;;;;;;35.85;26.84;95098.50;5033330;28;20253;-65
2022/07/24 07:10:46;;;;;;;10.60;9.05;;;;;;;35.72;27.45;95091.34;5033479;28;20199;-66
2022/07/24 07:13:13;;;;;;;17.10;9.50;;;;;;;36.00;27.14;95090.31;5033103;28;20629;-63
2022/07/24 07:15:39;;;;;;;16.60;9.77;;;;;;;35.93;26.98;95087.69;5033217;28;20747;-63
2022/07/24 07:18:06;;;;;;;20.15;9.60;;;;;;;35.79;27.40;95084.25;5033128;28;20203;-64
2022/07/24 07:20:33;;;;;;;12.52;8.45;;;;;;;35.09;27.94;95088.31;5033386;28;20199;-64
2022/07/24 07:23:01;;;;;;;17.92;9.38;;;;;;;34.42;29.23;95083.84;5033335;28;20207;-63
2022/07/24 07:25:29;;;;;;;15.63;8.88;;;;;;;34.56;28.87;95091.81;5031979;28;20670;-64
2022/07/24 07:27:55;;;;;;;14.73;9.02;;;;;;;33.95;30.30;95099.63;5033274;28;20206;-64
2022/07/24 07:30:22;;;;;;;14.95;9.13;;;;;;;34.25;30.23;95090.44;5033205;28;20266;-64
2022/07/24 07:32:49;;;;;;;11.60;9.35;;;;;;;34.36;29.90;95082.00;5032432;28;20704;-65
2022/07/24 07:35:16;;;;;;;19.30;9.52;;;;;;;34.35;29.61;95090.13;5032656;28;20203;-65
2022/07/24 07:37:45;;;;;;;16.45;10.55;;;;;;;34.59;29.74;95084.31;5032427;28;20206;-64
2022/07/24 07:40:13;;;;;;;16.38;10.30;;;;;;;34.67;28.98;95088.59;5032721;28;20345;-65
2022/07/24 07:42:40;;;;;;;14.55;8.32;;;;;;;34.60;27.56;95077.22;5032464;28;20211;-64
2022/07/24 07:45:08;;;;;;;11.60;8.77;;;;;;;34.51;27.19;95081.84;5032926;28;20196;-65
2022/07/24 07:47:36;;;;;;;16.77;8.98;;;;;;;34.53;27.48;95071.09;5032431;28;20220;-64
2022/07/24 07:50:04;;;;;;;13.82;10.73;;;;;;;34.57;28.39;95081.06;5032163;28;20257;-65
2022/07/24 07:52:31;;;;;;;15.43;10.90;;;;;;;34.47;28.36;95091.97;5032297;28;20263;-65
2022/07/24 07:54:58;;;;;;;15.77;10.85;;;;;;;34.33;28.69;95084.22;5032204;28;20200;-64
2022/07/24 07:57:26;;;;;;;18.42;9.80;;;;;;;34.38;29.17;95084.44;5032537;28;20204;-65
2022/07/24 07:59:53;;;;;;;16.58;12.10;;;;;;;34.67;28.47;95084.13;5032371;28;20736;-64
2022/07/24 08:02:19;;;;;;;19.73;13.98;;;;;;;34.59;28.18;95080.88;5032257;28;20208;-64
2022/07/24 08:04:46;;;;;;;19.92;15.68;;;;;;;34.55;28.47;95079.63;5032680;28;20226;-65
2022/07/24 08:07:13;;;;;;;15.85;9.93;;;;;;;34.21;29.68;95083.94;5031738;28;20208;-65
2022/07/24 08:09:40;;;;;;;15.35;9.45;;;;;;;34.42;28.89;95081.19;5032076;28;20628;-65
2022/07/24 08:12:07;;;;;;;24.25;9.73;;;;;;;34.68;29.00;95077.00;5032322;28;20561;-65
2022/07/24 08:14:35;;;;;;;11.25;9.57;;;;;;;34.85;28.71;95080.97;5032308;28;20215;-64
2022/07/24 08:17:02;;;;;;;14.18;9.35;;;;;;;34.89;28.04;95076.91;5031936;28;20203;-65
2022/07/24 08:19:29;;;;;;;13.40;9.05;;;;;;;35.00;28.21;95081.56;5032140;28;20224;-65
2022/07/24 08:21:55;;;;;;;12.07;9.18;;;;;;;34.55;28.32;95079.63;5032307;28;20199;-64
2022/07/24 08:24:22;;;;;;;16.50;9.75;;;;;;;34.84;28.25;95083.78;5032188;28;20199;-64
2022/07/24 08:26:50;;;;;;;18.73;9.43;;;;;;;35.07;27.83;95085.06;5031665;28;20294;-64
2022/07/24 08:29:17;;;;;;;32.17;18.73;;;;;;;35.29;27.34;95082.25;5031437;28;20246;-64
2022/07/24 08:31:45;;;;;;;29.38;21.27;;;;;;;34.96;28.37;95082.19;5031663;28;20199;-63
2022/07/24 08:34:12;;;;;;;25.80;10.25;;;;;;;34.45;29.56;95078.16;5031749;28;20207;-65
2022/07/24 08:36:39;;;;;;;20.05;11.15;;;;;;;34.44;28.93;95081.81;5031499;28;20211;-64
2022/07/24 08:39:05;;;;;;;19.67;10.15;;;;;;;34.70;29.12;95081.09;5031262;28;20223;-63
2022/07/24 08:41:35;;;;;;;13.15;9.40;;;;;;;34.88;27.94;95075.28;5032038;28;20223;-64
2022/07/24 08:44:04;;;;;;;11.02;9.52;;;;;;;34.77;28.40;95067.91;5031220;28;20704;-64
2022/07/24 08:46:32;;;;;;;16.17;9.55;;;;;;;34.67;28.57;95072.75;5031605;28;20281;-64
2022/07/24 08:49:00;;;;;;;11.77;9.63;;;;;;;34.36;29.31;95070.66;5031610;28;20203;-65
2022/07/24 08:51:33;;;;;;;16.02;9.57;;;;;;;34.05;30.02;95071.09;5031484;28;20297;-63
2022/07/24 08:54:02;;;;;;;11.90;9.52;;;;;;;33.87;30.03;95065.53;5031256;28;20213;-64
2022/07/24 08:56:29;;;;;;;21.15;9.55;;;;;;;33.50;30.78;95066.66;5031292;28;20685;-64
2022/07/24 08:58:56;;;;;;;16.52;9.23;;;;;;;33.37;30.89;95055.03;5031285;28;20232;-64
2022/07/24 09:01:22;;;;;;;18.63;10.18;;;;;;;33.34;31.38;95065.97;5031503;28;20199;-64
2022/07/24 09:03:49;;;;;;;17.83;9.82;;;;;;;33.29;30.80;95141.28;5031526;28;20235;-64
2022/07/24 09:06:18;;;;;;;16.67;9.60;;;;;;;33.42;31.36;95138.75;5030610;28;20219;-64
2022/07/24 09:08:59;;;;;;;17.67;9.77;;;;;;;33.47;31.48;95139.00;5030930;28;20192;-64
2022/07/24 09:11:28;;;;;;;14.10;9.45;;;;;;;33.66;31.79;95132.25;5030679;28;20733;-64
2022/07/24 09:16:45;;;;;;;19.08;10.07;;;;;;;34.18;30.66;95133.63;5031113;28;20210;-64
2022/07/24 09:19:15;;;;;;;18.73;10.93;;;;;;;34.37;30.35;95135.59;5030887;28;20751;-64
2022/07/24 09:21:48;;;;;;;15.73;9.77;;;;;;;34.12;30.39;95137.88;5030744;28;20208;-64
2022/07/24 09:24:17;;;;;;;15.77;9.88;;;;;;;34.34;30.69;95131.53;5030767;28;20195;-63
2022/07/24 09:26:46;;;;;;;17.33;9.63;;;;;;;34.69;30.53;95123.50;5030607;28;20203;-64
2022/07/24 09:29:13;;;;;;;14.80;9.25;;;;;;;34.79;29.86;95124.00;5030685;28;20195;-64
2022/07/24 09:31:54;;;;;;;14.63;9.93;;;;;;;34.78;29.66;95125.81;5031060;28;20212;-64
2022/07/24 09:34:21;;;;;;;25.20;10.30;;;;;;;34.61;29.14;95121.06;5031041;28;20210;-66
2022/07/24 09:37:00;;;;;;;15.00;9.15;;;;;;;34.58;29.02;95127.56;5030662;28;20283;-64
2022/07/24 09:39:29;;;;;;;11.15;9.43;;;;;;;34.79;29.39;95126.63;5030930;28;20652;-65
2022/07/24 09:41:57;;;;;;;12.40;9.57;;;;;;;34.84;29.34;95195.50;5030827;28;20204;-64
2022/07/24 09:44:25;;;;;;;13.13;8.70;;;;;;;34.91;28.39;95122.38;5030922;28;20286;-65
2022/07/24 09:47:02;;;;;;;17.45;9.25;;;;;;;;;;5030090;28;20199;-65
2022/07/24 09:49:31;;;;;;;17.10;8.13;;;;;;;35.01;nan;95120.19;5030560;28;20206;-64
2022/07/24 09:52:10;;;;;;;15.73;8.45;;;;;;;;;;5030175;28;20227;-65
2022/07/24 09:54:38;;;;;;;15.10;8.85;;;;;;;35.23;nan;95098.88;5030495;28;20262;-65
2022/07/24 09:57:17;;;;;;;22.63;13.35;;;;;;;35.16;nan;95108.59;5030621;28;20234;-64
2022/07/24 09:59:47;;;;;;;27.67;21.75;;;;;;;35.41;nan;95112.31;5030603;28;20227;-64
2022/07/24 10:02:14;;;;;;;19.50;14.57;;;;;;;35.58;nan;95108.25;5030516;28;20231;-63
2022/07/24 10:04:44;;;;;;;27.67;17.73;;;;;;;35.86;nan;95107.25;5030618;28;20223;-63
2022/07/24 10:07:14;;;;;;;34.78;25.00;;;;;;;36.05;nan;95103.75;5030621;28;20673;-64
2022/07/24 10:09:43;;;;;;;22.83;15.65;;;;;;;35.95;nan;95103.34;5030243;28;20242;-63
2022/07/24 10:12:13;;;;;;;20.05;12.88;;;;;;;35.96;nan;95099.69;5030593;28;20286;-63
2022/07/24 10:14:41;;;;;;;13.95;10.50;;;;;;;35.75;nan;95104.16;5030621;28;20203;-65
2022/07/24 10:17:09;;;;;;;13.40;8.18;;;;;;;35.98;nan;95102.94;5030290;28;20234;-64
2022/07/24 10:19:41;;;;;;;13.52;8.50;;;;;;;35.98;nan;95102.94;5030204;28;20285;-65
2022/07/24 10:22:12;;;;;;;14.63;8.30;;;;;;;36.23;nan;95100.41;5030699;28;20210;-63
2022/07/24 10:24:56;;;;;;;12.93;7.00;;;;;;;36.24;nan;95097.56;5030523;28;20196;-64
2022/07/24 10:27:29;;;;;;;10.27;7.40;;;;;;;36.24;nan;95086.16;5030439;28;20273;-64
2022/07/24 10:29:57;;;;;;;8.15;7.00;;;;;;;36.29;nan;95087.19;5030116;28;20222;-64
2022/07/24 10:32:26;;;;;;;9.57;7.30;;;;;;;36.17;nan;95091.47;5030434;28;20195;-63
2022/07/24 10:35:01;;;;;;;9.45;7.57;;;;;;;35.96;nan;95078.53;5030046;28;20219;-64
2022/07/24 10:37:38;;;;;;;11.50;8.63;;;;;;;35.91;nan;95086.25;5030180;28;20196;-64
2022/07/24 10:40:13;;;;;;;11.15;7.25;;;;;;;36.08;nan;95084.81;5030421;28;20228;-65
2022/07/24 10:43:11;;;;;;;11.18;7.50;;;;;;;36.16;nan;95079.25;5030417;28;20202;-65
2022/07/24 10:45:38;;;;;;;9.73;8.18;;;;;;;36.31;nan;95071.13;5030704;28;20203;-67
2022/07/24 10:48:32;;;;;;;9.23;7.53;;;;;;;36.20;nan;95072.53;5030136;28;20261;-64
2022/07/24 10:51:07;;;;;;;11.88;7.82;;;;;;;36.44;nan;95071.03;5030004;28;20713;-65
2022/07/24 10:53:49;;;;;;;8.52;7.65;;;;;;;36.76;nan;95067.44;5029583;28;20699;-63
2022/07/24 10:56:18;;;;;;;16.48;8.10;;;;;;;36.72;nan;95068.03;5029950;28;20208;-63
2022/07/24 10:58:56;;;;;;;11.57;8.57;;;;;;;36.29;nan;95058.09;5031029;28;20648;-64
2022/07/24 11:01:37;;;;;;;8.38;7.57;;;;;;;36.46;nan;95022.16;5033779;28;20226;-64
2022/07/24 11:04:26;;;;;;;14.95;8.40;;;;;;;36.63;nan;95053.41;5033693;28;20203;-63
2022/07/24 11:06:54;;;;;;;12.88;8.13;;;;;;;36.53;nan;95051.25;5033630;28;20202;-63
2022/07/24 11:09:24;;;;;;;16.15;8.13;;;;;;;36.31;nan;95045.47;5033428;28;20196;-63
2022/07/24 11:12:07;;;;;;;8.25;7.45;;;;;;;35.92;nan;95066.72;5033212;28;20262;-63
2022/07/24 11:14:51;;;;;;;8.30;7.50;;;;;;;35.76;nan;95052.91;5033332;28;20203;-64
2022/07/24 11:17:37;;;;;;;11.98;7.70;;;;;;;35.62;nan;95040.75;5033074;28;20199;-64
2022/07/24 11:20:05;;;;;;;8.88;8.13;;;;;;;35.69;nan;95052.09;5033221;28;20259;-64
2022/07/24 11:22:47;;;;;;;11.60;8.27;;;;;;;35.96;nan;95046.78;5033247;28;20257;-64
2022/07/24 11:25:21;;;;;;;9.02;8.18;;;;;;;35.97;nan;95037.81;5033080;28;20231;-64
2022/07/24 11:27:56;;;;;;;9.30;8.05;;;;;;;35.97;nan;95037.81;5033208;28;20222;-64
2022/07/24 11:30:24;;;;;;;9.90;7.55;;;;;;;35.73;nan;95058.59;5033264;28;20203;-64
2022/07/24 11:32:51;;;;;;;9.90;7.82;;;;;;;35.67;nan;95040.91;5032712;28;20200;-64
2022/07/24 11:35:26;;;;;;;10.57;7.95;;;;;;;35.52;nan;95040.34;5032814;28;20204;-63
2022/07/24 11:37:54;;;;;;;11.82;8.00;;;;;;;35.51;nan;95033.44;5032830;28;20264;-63